Time;durP1;ratioP1;P1;durP2;ratioP2;P2;SDS_P1;SDS_P2;PMS_P1;PMS_P2;Temp;Humidity;BMP_temperature;BMP_pressure;BME280_temperature;BME280_humidity;BME280_pressure;Samples;Min_cycle;Max_cycle;Signal;HPM_P1;HPM_P2
2022/10/20 00:01:19;;;;;;;5.88;2.78;;;10.40;97.40;;;;;;5052807;28;20033;-76
2022/10/20 00:03:45;;;;;;;9.32;3.22;;;10.50;97.40;;;;;;5068073;28;20029;-76
2022/10/20 00:06:22;;;;;;;10.68;2.28;;;10.50;97.30;;;;;;5052410;28;20025;-76
2022/10/20 00:08:47;;;;;;;6.05;2.65;;;10.40;97.40;;;;;;5068023;28;20104;-76
2022/10/20 00:11:16;;;;;;;10.00;2.85;;;10.40;97.50;;;;;;5052829;28;20100;-75
2022/10/20 00:13:44;;;;;;;11.02;3.10;;;10.40;97.30;;;;;;5052866;28;20053;-77
2022/10/20 00:16:11;;;;;;;;;;;10.40;97.30;;;;;;5051929;28;20041;-77
2022/10/20 00:18:37;;;;;;;7.03;2.47;;;10.50;97.20;;;;;;5068064;28;19959;-76
2022/10/20 00:21:08;;;;;;;2.70;2.20;;;10.50;97.20;;;;;;5052260;28;20095;-76
2022/10/20 00:23:35;;;;;;;8.50;2.58;;;10.60;97.30;;;;;;5052225;28;20112;-76
2022/10/20 00:26:06;;;;;;;6.25;3.08;;;10.30;97.40;;;;;;5052718;28;20028;-76
2022/10/20 00:28:32;;;;;;;2.83;2.10;;;10.40;97.40;;;;;;5067741;28;20423;-76
2022/10/20 00:30:58;;;;;;;10.20;3.00;;;10.40;97.40;;;;;;5051911;28;20025;-75
2022/10/20 00:33:24;;;;;;;12.85;2.65;;;10.40;97.40;;;;;;5052260;28;20017;-76
2022/10/20 00:35:50;;;;;;;6.20;2.80;;;10.30;97.30;;;;;;5051907;28;20555;-76
2022/10/20 00:38:16;;;;;;;5.85;2.70;;;10.30;97.10;;;;;;5068066;28;20112;-76
2022/10/20 00:40:42;;;;;;;10.57;2.65;;;10.40;97.10;;;;;;5052480;28;20044;-78
2022/10/20 00:43:15;;;;;;;8.82;2.55;;;10.30;97.30;;;;;;5051812;28;20447;-76
2022/10/20 00:45:43;;;;;;;7.80;2.65;;;10.30;97.20;;;;;;5051708;28;20033;-76
2022/10/20 00:48:14;;;;;;;8.07;3.03;;;10.20;97.40;;;;;;5051592;28;20430;-76
2022/10/20 00:50:45;;;;;;;10.68;2.63;;;10.10;97.50;;;;;;5051675;28;20037;-75
2022/10/20 00:53:11;;;;;;;8.00;2.55;;;10.00;97.60;;;;;;5052233;28;20029;-76
2022/10/20 00:55:40;;;;;;;8.77;2.47;;;10.10;97.60;;;;;;5051836;28;20029;-76
2022/10/20 00:58:06;;;;;;;5.95;2.50;;;10.10;97.60;;;;;;5050330;28;20091;-75
2022/10/20 01:00:32;;;;;;;5.88;2.45;;;10.00;97.50;;;;;;5051791;28;20242;-76
2022/10/20 01:03:00;;;;;;;8.90;2.58;;;10.00;97.30;;;;;;5051288;28;20029;-76
2022/10/20 01:05:26;;;;;;;;;;;9.90;98.10;;;;;;5052072;28;20064;-77
2022/10/20 01:07:52;;;;;;;6.55;2.40;;;9.80;98.10;;;;;;5051679;28;19963;-76
2022/10/20 01:10:18;;;;;;;5.45;2.60;;;9.70;98.10;;;;;;5051533;28;20029;-76
2022/10/20 01:12:47;;;;;;;4.88;2.33;;;9.60;98.40;;;;;;5051240;28;20049;-75
2022/10/20 01:15:34;;;;;;;15.75;2.88;;;9.80;98.40;;;;;;5051157;28;20098;-76
2022/10/20 01:18:27;;;;;;;5.93;2.33;;;9.80;98.20;;;;;;5051332;28;20047;-74
2022/10/20 01:21:17;;;;;;;5.72;2.45;;;9.80;98.20;;;;;;5051118;28;20032;-75
2022/10/20 01:23:53;;;;;;;11.35;2.72;;;9.70;98.20;;;;;;5050832;28;20202;-75
2022/10/20 01:26:30;;;;;;;10.50;2.53;;;9.60;98.30;;;;;;5051528;28;20021;-75
2022/10/20 01:29:20;;;;;;;4.90;2.30;;;9.60;98.40;;;;;;5051310;28;20041;-75
2022/10/20 01:32:04;;;;;;;3.78;2.33;;;9.60;98.20;;;;;;5050063;28;20033;-75
2022/10/20 01:34:53;;;;;;;8.98;3.10;;;9.50;98.30;;;;;;5051089;28;20052;-74
2022/10/20 01:37:28;;;;;;;8.15;2.72;;;9.50;98.50;;;;;;5050139;28;20029;-75
2022/10/20 01:40:06;;;;;;;8.32;2.88;;;9.40;98.60;;;;;;5051074;28;20040;-75
2022/10/20 01:42:32;;;;;;;7.38;2.80;;;9.40;98.80;;;;;;5050814;28;20100;-75
2022/10/20 01:45:02;;;;;;;7.95;2.92;;;9.40;98.70;;;;;;5050363;28;20118;-75
2022/10/20 01:47:29;;;;;;;7.38;2.97;;;9.40;98.80;;;;;;5049829;28;20146;-75
2022/10/20 01:49:56;;;;;;;7.25;3.03;;;9.50;98.70;;;;;;5051433;28;20466;-76
2022/10/20 01:52:22;;;;;;;9.57;3.10;;;9.50;98.90;;;;;;5049498;28;20043;-75
2022/10/20 01:54:48;;;;;;;7.53;2.63;;;9.50;98.50;;;;;;5050621;28;20025;-74
2022/10/20 01:57:53;;;;;;;6.75;2.70;;;9.40;98.50;;;;;;5050626;28;20021;-76
2022/10/20 02:00:19;;;;;;;10.77;2.75;;;9.40;98.60;;;;;;5050756;28;20021;-76
2022/10/20 02:03:26;;;;;;;5.50;2.88;;;9.40;98.60;;;;;;5050577;28;20320;-75
2022/10/20 02:06:29;;;;;;;7.85;2.78;;;9.40;98.50;;;;;;5050372;28;20412;-74
2022/10/20 02:08:58;;;;;;;13.43;2.22;;;9.30;98.60;;;;;;5050713;28;20335;-75
2022/10/20 02:11:30;;;;;;;11.52;3.50;;;9.20;98.80;;;;;;5051165;28;20332;-75
2022/10/20 02:13:57;;;;;;;6.10;2.60;;;9.30;98.70;;;;;;5050538;28;20048;-75
2022/10/20 02:16:38;;;;;;;6.68;3.10;;;9.30;98.70;;;;;;5050539;28;20128;-75
2022/10/20 02:19:05;;;;;;;3.58;2.45;;;9.20;98.70;;;;;;5050437;28;20495;-74
2022/10/20 02:21:31;;;;;;;5.05;2.40;;;9.30;98.80;;;;;;5050261;28;20436;-75
2022/10/20 02:24:02;;;;;;;4.95;2.63;;;9.40;98.50;;;;;;5050076;28;20098;-76
2022/10/20 02:26:31;;;;;;;10.13;2.70;;;9.40;98.40;;;;;;5049308;28;20021;-73
2022/10/20 02:29:00;;;;;;;9.02;2.63;;;9.40;98.30;;;;;;5050840;28;20541;-74
2022/10/20 02:31:26;;;;;;;7.35;2.65;;;9.40;98.30;;;;;;5050312;28;20138;-75
2022/10/20 02:33:54;;;;;;;6.75;2.75;;;9.40;98.30;;;;;;5049125;28;20063;-77
2022/10/20 02:36:25;;;;;;;7.93;2.85;;;9.40;98.40;;;;;;5050264;28;20061;-74
2022/10/20 02:38:51;;;;;;;6.65;2.67;;;9.40;98.40;;;;;;5049188;28;20423;-76
2022/10/20 02:41:16;;;;;;;4.57;2.38;;;9.40;98.20;;;;;;5049809;28;20075;-75
2022/10/20 02:43:42;;;;;;;8.15;2.83;;;9.40;98.20;;;;;;5050329;28;20064;-75
2022/10/20 02:46:08;;;;;;;8.70;2.55;;;9.30;98.10;;;;;;5050297;28;20049;-75
2022/10/20 02:48:34;;;;;;;6.65;2.92;;;9.40;98.30;;;;;;5050181;28;20029;-75
2022/10/20 02:50:59;;;;;;;6.20;2.50;;;9.30;98.40;;;;;;5050286;28;20410;-75
2022/10/20 02:53:25;;;;;;;8.48;2.47;;;9.30;98.40;;;;;;5050490;28;20021;-75
2022/10/20 02:55:51;;;;;;;8.48;2.78;;;9.20;98.60;;;;;;5049016;28;20363;-75
2022/10/20 02:58:17;;;;;;;5.75;2.40;;;9.30;98.50;;;;;;5053641;28;20064;-75
2022/10/20 03:00:42;;;;;;;6.53;2.55;;;9.30;98.50;;;;;;5054109;28;20307;-75
2022/10/20 03:03:08;;;;;;;4.90;2.65;;;9.20;98.60;;;;;;5052719;28;20315;-76
2022/10/20 03:05:39;;;;;;;6.13;2.30;;;9.30;98.60;;;;;;5053917;28;20047;-75
2022/10/20 03:08:04;;;;;;;6.50;2.50;;;9.30;98.40;;;;;;5054208;28;20021;-76
2022/10/20 03:10:30;;;;;;;14.68;2.60;;;9.20;98.60;;;;;;5053968;28;20048;-75
2022/10/20 03:12:56;;;;;;;4.32;2.20;;;9.20;98.70;;;;;;5052583;28;20053;-75
2022/10/20 03:15:21;;;;;;;10.27;2.80;;;9.30;98.80;;;;;;5052645;28;20037;-74
2022/10/20 03:17:47;;;;;;;6.30;2.63;;;9.20;98.70;;;;;;5053499;28;20033;-76
2022/10/20 03:20:12;;;;;;;4.45;2.35;;;9.20;98.70;;;;;;5053837;28;20036;-76
2022/10/20 03:22:38;;;;;;;6.25;2.85;;;9.20;98.70;;;;;;5053714;28;20033;-75
2022/10/20 03:25:04;;;;;;;7.57;2.47;;;9.20;98.70;;;;;;5053517;28;20112;-76
2022/10/20 03:27:30;;;;;;;6.57;2.72;;;9.20;98.80;;;;;;5053514;28;20029;-74
2022/10/20 03:29:55;;;;;;;6.22;3.20;;;9.20;98.80;;;;;;5053465;28;20391;-75
2022/10/20 03:32:21;;;;;;;9.60;2.65;;;9.20;98.70;;;;;;5053829;28;20033;-75
2022/10/20 03:34:47;;;;;;;13.65;2.97;;;9.20;98.90;;;;;;5053393;28;20039;-76
2022/10/20 03:37:12;;;;;;;10.85;2.90;;;9.20;98.80;;;;;;5053116;28;20467;-76
2022/10/20 03:39:38;;;;;;;4.38;2.55;;;9.20;98.70;;;;;;5053091;28;20037;-74
2022/10/20 03:42:03;;;;;;;7.82;2.67;;;9.10;98.50;;;;;;5053102;28;20033;-75
2022/10/20 03:44:29;;;;;;;5.82;2.70;;;9.10;98.80;;;;;;5053052;28;20359;-74
2022/10/20 03:46:55;;;;;;;7.45;2.90;;;9.20;98.70;;;;;;5053704;28;20096;-75
2022/10/20 03:49:20;;;;;;;7.95;3.17;;;9.10;98.70;;;;;;5053435;28;20451;-74
2022/10/20 03:51:46;;;;;;;11.02;2.47;;;9.00;99.00;;;;;;5053493;28;20043;-75
2022/10/20 03:54:11;;;;;;;5.55;2.50;;;9.00;98.90;;;;;;5053475;28;20048;-75
2022/10/20 03:56:37;;;;;;;7.07;2.65;;;9.00;98.70;;;;;;5053152;28;20329;-76
2022/10/20 03:59:03;;;;;;;3.20;2.25;;;9.00;98.60;;;;;;5053759;28;20021;-75
2022/10/20 04:01:31;;;;;;;10.27;2.78;;;8.90;98.70;;;;;;5053123;28;20025;-76
2022/10/20 04:03:57;;;;;;;;;;;8.90;98.90;;;;;;5051924;28;20029;-77
2022/10/20 04:06:23;;;;;;;5.78;2.58;;;8.80;99.20;;;;;;5052388;28;19913;-76
2022/10/20 04:08:48;;;;;;;8.75;2.70;;;8.80;99.00;;;;;;5051054;28;20048;-76
2022/10/20 04:11:14;;;;;;;6.40;2.60;;;8.80;99.10;;;;;;5052989;28;20083;-76
2022/10/20 04:13:39;;;;;;;6.05;3.20;;;8.80;99.30;;;;;;5052663;28;20463;-76
2022/10/20 04:16:06;;;;;;;5.50;2.58;;;8.90;98.80;;;;;;5052638;28;20032;-76
2022/10/20 04:18:31;;;;;;;7.50;3.45;;;8.90;98.90;;;;;;5052527;28;20037;-76
2022/10/20 04:20:57;;;;;;;5.18;2.72;;;8.90;98.90;;;;;;5050976;28;20037;-75
2022/10/20 04:23:23;;;;;;;7.45;2.75;;;8.80;99.30;;;;;;5052398;28;20033;-76
2022/10/20 04:25:49;;;;;;;7.95;3.10;;;8.90;99.10;;;;;;5052739;28;20347;-77
2022/10/20 04:28:16;;;;;;;7.28;2.58;;;9.00;99.10;;;;;;5052328;28;20037;-75
2022/10/20 04:30:42;;;;;;;7.00;3.20;;;9.00;98.90;;;;;;5052309;28;20526;-76
2022/10/20 04:33:08;;;;;;;5.00;2.38;;;9.00;98.80;;;;;;5052009;28;20371;-76
2022/10/20 04:35:34;;;;;;;9.32;2.85;;;9.00;98.90;;;;;;5050835;28;20036;-74
2022/10/20 04:38:00;;;;;;;8.82;2.90;;;9.00;98.80;;;;;;5052367;28;20009;-77
2022/10/20 04:40:25;;;;;;;9.00;4.30;;;9.00;98.60;;;;;;5050747;28;20029;-75
2022/10/20 04:42:51;;;;;;;5.30;3.10;;;9.10;98.70;;;;;;5051908;28;20430;-76
2022/10/20 04:45:19;;;;;;;14.98;3.30;;;9.00;98.80;;;;;;5052180;28;20548;-76
2022/10/20 04:47:44;;;;;;;;;;;9.10;98.70;;;;;;5052237;28;20451;-77
2022/10/20 04:50:10;;;;;;;7.95;2.58;;;9.00;98.90;;;;;;5067867;28;19916;-77
2022/10/20 04:52:36;;;;;;;10.50;3.33;;;9.00;98.80;;;;;;5051890;28;20040;-76
2022/10/20 04:55:02;;;;;;;9.00;3.03;;;8.90;98.90;;;;;;5050400;28;20120;-76
2022/10/20 04:57:27;;;;;;;8.65;3.05;;;9.00;99.10;;;;;;5051630;28;20328;-76
2022/10/20 04:59:53;;;;;;;8.30;3.15;;;9.00;98.70;;;;;;5051304;28;20045;-77
2022/10/20 05:02:19;;;;;;;11.82;2.38;;;8.90;98.80;;;;;;5050893;28;20443;-75
2022/10/20 05:04:45;;;;;;;8.95;2.95;;;8.90;98.50;;;;;;5051562;28;20145;-75
2022/10/20 05:07:11;;;;;;;8.10;2.85;;;8.90;98.80;;;;;;5051254;28;20025;-74
2022/10/20 05:09:37;;;;;;;8.05;3.00;;;8.80;99.00;;;;;;5051550;28;20471;-75
2022/10/20 05:12:02;;;;;;;6.70;3.38;;;8.80;99.00;;;;;;5050327;28;20095;-78
2022/10/20 05:14:28;;;;;;;6.55;2.85;;;8.90;99.00;;;;;;5051692;28;20099;-75
2022/10/20 05:16:54;;;;;;;13.48;3.58;;;8.90;98.90;;;;;;5051521;28;20074;-77
2022/10/20 05:19:20;;;;;;;6.40;3.38;;;8.90;98.90;;;;;;5050762;28;20471;-75
2022/10/20 05:21:45;;;;;;;3.90;2.72;;;9.00;98.90;;;;;;5049855;28;20144;-76
2022/10/20 05:24:16;;;;;;;6.15;2.88;;;9.00;98.90;;;;;;5051182;28;20477;-76
2022/10/20 05:26:41;;;;;;;6.40;3.15;;;9.00;98.80;;;;;;5051331;28;20025;-76
2022/10/20 05:29:09;;;;;;;9.05;2.85;;;9.10;98.80;;;;;;5051701;28;20103;-76
2022/10/20 05:31:41;;;;;;;7.80;3.00;;;9.10;98.80;;;;;;5051294;28;20029;-77
2022/10/20 05:34:06;;;;;;;11.35;2.90;;;9.00;98.80;;;;;;5049857;28;20116;-76
2022/10/20 05:36:32;;;;;;;8.93;2.58;;;9.00;99.00;;;;;;5049825;28;20442;-78
2022/10/20 05:38:58;;;;;;;5.00;2.50;;;9.00;98.80;;;;;;5050953;28;20073;-76
2022/10/20 05:41:29;;;;;;;10.68;2.78;;;8.90;98.80;;;;;;5050249;28;20615;-74
2022/10/20 05:43:59;;;;;;;10.73;2.95;;;8.90;98.90;;;;;;5051078;28;20378;-75
2022/10/20 05:46:27;;;;;;;27.42;11.85;;;9.00;99.20;;;;;;5050636;28;20530;-77
2022/10/20 05:48:55;;;;;;;8.02;3.88;;;9.00;98.90;;;;;;5049714;28;20517;-76
2022/10/20 05:51:24;;;;;;;8.13;3.20;;;9.00;99.00;;;;;;5050763;28;20125;-77
2022/10/20 05:53:51;;;;;;;4.78;2.53;;;9.00;98.90;;;;;;5050900;28;20447;-77
2022/10/20 05:56:19;;;;;;;4.20;2.47;;;9.00;98.90;;;;;;5051262;28;20056;-76
2022/10/20 05:58:46;;;;;;;6.18;2.90;;;9.00;99.00;;;;;;5051469;28;20463;-75
2022/10/20 06:01:23;;;;;;;6.85;2.90;;;9.00;99.00;;;;;;5050947;28;20092;-77
2022/10/20 06:03:54;;;;;;;4.72;2.28;;;9.00;98.90;;;;;;5049425;28;20036;-75
2022/10/20 06:06:23;;;;;;;5.32;2.55;;;9.00;98.70;;;;;;5050590;28;20040;-77
2022/10/20 06:08:49;;;;;;;7.38;2.95;;;8.90;99.00;;;;;;5049642;28;20447;-75
2022/10/20 06:11:15;;;;;;;9.48;3.03;;;8.90;99.00;;;;;;5050084;28;20112;-74
2022/10/20 06:13:41;;;;;;;11.23;3.28;;;8.90;99.00;;;;;;5050770;28;20422;-82
2022/10/20 06:16:12;;;;;;;10.38;3.00;;;9.00;99.20;;;;;;5050239;28;20029;-77
2022/10/20 06:18:38;;;;;;;4.97;2.97;;;9.00;99.20;;;;;;5050802;28;20025;-74
2022/10/20 06:21:11;;;;;;;6.03;2.70;;;9.10;99.10;;;;;;5051037;28;20098;-78
2022/10/20 06:23:36;;;;;;;8.02;2.80;;;9.10;99.10;;;;;;5050661;28;20057;-76
2022/10/20 06:26:11;;;;;;;11.85;3.00;;;9.10;99.20;;;;;;5051071;28;20454;-77
2022/10/20 06:28:39;;;;;;;4.30;2.88;;;9.20;99.40;;;;;;5049851;28;20081;-76
2022/10/20 06:31:16;;;;;;;9.55;3.75;;;9.20;99.00;;;;;;5052733;28;20087;-77
2022/10/20 06:33:43;;;;;;;11.30;4.75;;;9.20;99.10;;;;;;5054445;28;20095;-77
2022/10/20 06:36:09;;;;;;;7.53;3.53;;;9.20;99.10;;;;;;5053299;28;20537;-76
2022/10/20 06:38:35;;;;;;;10.45;3.70;;;9.10;99.30;;;;;;5054596;28;20029;-79
2022/10/20 06:41:02;;;;;;;15.05;4.38;;;9.20;99.40;;;;;;5054593;28;20432;-76
2022/10/20 06:43:28;;;;;;;15.48;6.00;;;9.20;99.40;;;;;;5054713;28;20029;-75
2022/10/20 06:46:03;;;;;;;9.05;4.07;;;9.20;99.20;;;;;;5054224;28;20119;-76
2022/10/20 06:48:28;;;;;;;9.05;3.55;;;9.20;99.20;;;;;;5054450;28;20044;-77
2022/10/20 06:51:14;;;;;;;13.38;3.65;;;9.20;99.10;;;;;;5054250;28;20025;-76
2022/10/20 06:53:40;;;;;;;7.88;3.35;;;9.20;99.50;;;;;;5053815;28;20036;-77
2022/10/20 06:56:13;;;;;;;12.82;3.97;;;9.20;99.40;;;;;;5054554;28;20122;-77
2022/10/20 06:58:40;;;;;;;21.10;4.63;;;9.30;99.40;;;;;;5054340;28;20029;-78
2022/10/20 07:01:10;;;;;;;10.55;4.15;;;9.40;99.50;;;;;;5052892;28;20033;-75
2022/10/20 07:03:37;;;;;;;8.15;4.20;;;9.40;99.40;;;;;;5053657;28;20172;-78
2022/10/20 07:06:04;;;;;;;10.50;5.03;;;9.50;99.30;;;;;;5052791;28;20032;-75
2022/10/20 07:08:32;;;;;;;11.38;4.03;;;9.50;99.10;;;;;;5053866;28;20021;-77
2022/10/20 07:11:02;;;;;;;11.27;4.72;;;9.50;99.10;;;;;;5054658;28;20422;-79
2022/10/20 07:13:29;;;;;;;7.97;3.90;;;9.50;99.20;;;;;;5053627;28;20040;-75
2022/10/20 07:15:58;;;;;;;13.15;4.50;;;9.60;99.10;;;;;;5052361;28;20036;-76
2022/10/20 07:18:25;;;;;;;9.68;4.30;;;9.70;99.10;;;;;;5052373;28;20505;-73
2022/10/20 07:20:54;;;;;;;7.47;4.53;;;9.70;99.00;;;;;;5053315;28;20496;-76
2022/10/20 07:23:20;;;;;;;9.10;4.88;;;9.70;98.90;;;;;;5053692;28;20025;-75
2022/10/20 07:25:45;;;;;;;11.18;4.90;;;9.80;99.00;;;;;;5053232;28;20036;-75
2022/10/20 07:28:11;;;;;;;7.88;4.75;;;9.80;98.90;;;;;;5053278;28;20581;-75
2022/10/20 07:30:39;;;;;;;10.93;5.20;;;9.80;98.80;;;;;;5053405;28;20379;-78
2022/10/20 07:33:04;;;;;;;13.45;6.35;;;9.80;98.70;;;;;;5053356;28;20029;-75
2022/10/20 07:35:30;;;;;;;9.70;5.85;;;9.90;99.00;;;;;;5052112;28;20384;-76
2022/10/20 07:37:56;;;;;;;8.68;5.25;;;9.80;98.60;;;;;;5053513;28;20047;-76
2022/10/20 07:40:21;;;;;;;13.32;5.55;;;9.70;98.60;;;;;;5051888;28;20037;-76
2022/10/20 07:42:47;;;;;;;9.20;5.90;;;9.80;98.80;;;;;;5051231;28;20044;-76
2022/10/20 07:45:13;;;;;;;12.80;5.40;;;9.80;98.80;;;;;;5052281;28;20025;-77
2022/10/20 07:47:39;;;;;;;16.40;6.00;;;9.90;98.70;;;;;;5052324;28;20515;-75
2022/10/20 07:50:05;;;;;;;10.18;5.35;;;10.00;98.90;;;;;;5054138;28;20517;-77
2022/10/20 07:52:31;;;;;;;15.10;6.30;;;10.00;98.10;;;;;;5052811;28;20124;-76
2022/10/20 07:54:56;;;;;;;9.80;5.72;;;10.00;98.00;;;;;;5053371;28;20148;-76
2022/10/20 07:57:22;;;;;;;14.55;5.20;;;10.10;98.10;;;;;;5051766;28;20033;-76
2022/10/20 07:59:48;;;;;;;13.00;5.90;;;10.20;97.80;;;;;;5051768;28;20120;-75
2022/10/20 08:02:14;;;;;;;11.80;6.03;;;10.20;97.70;;;;;;5053178;28;20490;-75
2022/10/20 08:04:42;;;;;;;9.93;5.40;;;10.30;97.70;;;;;;5052898;28;20033;-75
2022/10/20 08:07:09;;;;;;;9.30;5.57;;;10.30;97.60;;;;;;5052620;28;20025;-76
2022/10/20 08:09:35;;;;;;;9.32;5.82;;;10.30;97.60;;;;;;5052954;28;20036;-76
2022/10/20 08:12:02;;;;;;;13.88;5.35;;;10.40;97.60;;;;;;5051212;28;20085;-76
2022/10/20 08:14:32;;;;;;;8.05;5.07;;;10.50;97.50;;;;;;5052483;28;20032;-73
2022/10/20 08:16:58;;;;;;;14.48;5.13;;;10.50;97.40;;;;;;5051998;28;20017;-76
2022/10/20 08:19:24;;;;;;;13.82;7.25;;;10.60;97.40;;;;;;5052656;28;20488;-76
2022/10/20 08:21:50;;;;;;;11.07;5.80;;;10.70;97.30;;;;;;5052601;28;20438;-76
2022/10/20 08:24:16;;;;;;;9.75;5.10;;;10.70;97.10;;;;;;5052438;28;20083;-74
2022/10/20 08:26:41;;;;;;;11.68;5.03;;;10.70;96.90;;;;;;5052309;28;20060;-75
2022/10/20 08:29:08;;;;;;;11.43;5.90;;;10.80;97.00;;;;;;5052736;28;20095;-74
2022/10/20 08:31:34;;;;;;;12.20;6.35;;;10.90;96.90;;;;;;5052252;28;20032;-75
2022/10/20 08:34:00;;;;;;;10.38;5.63;;;10.90;96.90;;;;;;5052059;28;20029;-76
2022/10/20 08:36:29;;;;;;;9.18;5.60;;;11.00;96.90;;;;;;5050944;28;20090;-75
2022/10/20 08:38:57;;;;;;;9.80;5.50;;;11.10;96.90;;;;;;5051140;28;20025;-75
2022/10/20 08:41:24;;;;;;;;;;;11.10;96.50;;;;;;5052937;28;20020;-75
2022/10/20 08:43:53;;;;;;;10.70;5.47;;;11.20;96.70;;;;;;5052171;28;19912;-75
2022/10/20 08:46:26;;;;;;;12.93;5.90;;;11.20;96.70;;;;;;5052198;28;20090;-76
2022/10/20 08:48:52;;;;;;;13.55;6.88;;;11.30;96.70;;;;;;5051981;28;20109;-75
2022/10/20 08:51:21;;;;;;;12.23;6.15;;;11.40;96.70;;;;;;5051571;28;20026;-76
2022/10/20 08:53:50;;;;;;;10.63;4.97;;;11.50;96.70;;;;;;5051317;28;20051;-77
2022/10/20 08:56:19;;;;;;;26.20;6.90;;;11.70;96.40;;;;;;5051768;28;20359;-75
2022/10/20 08:58:45;;;;;;;33.63;6.40;;;11.80;96.40;;;;;;5051952;28;20146;-77
2022/10/20 09:01:19;;;;;;;14.00;5.20;;;11.90;96.30;;;;;;5051764;28;20044;-78
2022/10/20 09:03:55;;;;;;;8.88;5.32;;;12.00;96.50;;;;;;5051590;28;20039;-76
2022/10/20 09:06:21;;;;;;;12.48;5.70;;;12.10;96.30;;;;;;5050242;28;20108;-76
2022/10/20 09:08:48;;;;;;;7.40;5.00;;;12.30;96.10;;;;;;5052745;28;20203;-78
2022/10/20 09:11:39;;;;;;;10.82;5.45;;;12.40;96.30;;;;;;5050891;28;20094;-78
2022/10/20 09:14:08;;;;;;;11.82;5.38;;;12.60;95.80;;;;;;5049687;28;20056;-77
2022/10/20 09:16:37;;;;;;;11.07;5.35;;;12.80;95.70;;;;;;5055511;28;20087;-76
2022/10/20 09:19:15;;;;;;;8.07;5.10;;;13.10;95.50;;;;;;5055095;28;20051;-76
2022/10/20 09:21:41;;;;;;;10.18;5.40;;;13.70;94.80;;;;;;5057884;28;20033;-76
2022/10/20 09:24:08;;;;;;;9.63;5.20;;;14.20;94.20;;;;;;5058635;28;20048;-77
2022/10/20 09:26:37;;;;;;;7.80;4.82;;;14.80;94.00;;;;;;5056350;28;20108;-76
2022/10/20 09:29:12;;;;;;;8.00;4.70;;;15.40;92.90;;;;;;5056474;28;20025;-75
2022/10/20 09:31:51;;;;;;;11.13;4.47;;;15.80;93.10;;;;;;5054163;28;20029;-75
2022/10/20 09:34:25;;;;;;;7.85;4.20;;;16.30;92.00;;;;;;5051338;28;20387;-76
2022/10/20 09:37:01;;;;;;;9.55;4.35;;;16.60;91.00;;;;;;5051324;28;20100;-77
2022/10/20 09:39:30;;;;;;;7.60;3.97;;;16.90;90.50;;;;;;5051183;28;20033;-77
2022/10/20 09:42:05;;;;;;;10.02;4.35;;;17.70;88.70;;;;;;5051229;28;20086;-77
2022/10/20 09:44:37;;;;;;;7.95;4.15;;;18.40;91.40;;;;;;5050878;28;20017;-77
2022/10/20 09:47:03;;;;;;;9.45;4.40;;;19.10;87.20;;;;;;5051459;28;20021;-78
2022/10/20 09:49:36;;;;;;;7.78;3.75;;;19.80;86.30;;;;;;5050907;28;20029;-77
2022/10/20 09:52:13;;;;;;;5.03;3.28;;;20.30;83.20;;;;;;5049611;28;20033;-77
2022/10/20 09:54:38;;;;;;;5.93;3.50;;;20.80;80.30;;;;;;5051043;28;20183;-77
2022/10/20 09:57:13;;;;;;;11.82;4.97;;;21.00;79.30;;;;;;5050490;28;20029;-80
2022/10/20 09:59:47;;;;;;;7.25;5.13;;;21.10;79.40;;;;;;5050787;28;20025;-76
2022/10/20 10:02:16;;;;;;;7.88;3.78;;;21.40;77.90;;;;;;5050916;28;20387;-77
2022/10/20 10:04:45;;;;;;;11.45;4.10;;;21.50;80.50;;;;;;5050176;28;20037;-79
2022/10/20 10:07:26;;;;;;;8.00;4.10;;;21.50;76.90;;;;;;5050484;28;20067;-77
2022/10/20 10:09:59;;;;;;;13.00;3.92;;;21.60;74.90;;;;;;5049701;28;20474;-76
2022/10/20 10:12:27;;;;;;;7.45;4.20;;;21.60;78.40;;;;;;5050838;28;20049;-77
2022/10/20 10:14:57;;;;;;;5.70;4.00;;;21.30;75.80;;;;;;5050317;28;20037;-76
2022/10/20 10:17:32;;;;;;;8.18;3.95;;;21.30;75.30;;;;;;5053539;28;20032;-77
2022/10/20 10:20:00;;;;;;;5.40;3.55;;;21.40;75.70;;;;;;5053742;28;20041;-76
2022/10/20 10:22:26;;;;;;;9.82;4.25;;;21.70;76.10;;;;;;5052694;28;20132;-77
2022/10/20 10:24:54;;;;;;;8.98;3.78;;;21.20;74.90;;;;;;5050804;28;20112;-77
2022/10/20 10:27:27;;;;;;;7.75;4.05;;;21.00;74.90;;;;;;5050671;28;20033;-77
2022/10/20 10:29:55;;;;;;;10.38;4.20;;;20.90;77.00;;;;;;5050531;28;20029;-77
2022/10/20 10:32:26;;;;;;;6.82;4.05;;;21.30;75.70;;;;;;5050289;28;20370;-77
2022/10/20 10:35:02;;;;;;;8.15;3.80;;;21.40;74.50;;;;;;5049962;28;20045;-77
2022/10/20 10:37:30;;;;;;;7.63;3.72;;;20.90;73.20;;;;;;5049243;28;20029;-79
2022/10/20 10:39:56;;;;;;;7.95;3.28;;;21.00;74.10;;;;;;5050105;28;20047;-78
2022/10/20 10:43:04;;;;;;;12.32;6.72;;;21.20;76.40;;;;;;5050625;28;20037;-79
2022/10/20 10:46:06;;;;;;;9.85;3.33;;;21.20;75.20;;;;;;5039268;28;20462;-76
2022/10/20 10:48:49;;;;;;;15.27;7.03;;;21.50;74.20;;;;;;5050431;28;20037;-77
2022/10/20 10:51:38;;;;;;;10.40;6.97;;;20.90;74.40;;;;;;5050209;28;20028;-76
2022/10/20 10:54:32;;;;;;;12.35;6.38;;;20.70;74.20;;;;;;5049169;28;20025;-78
2022/10/20 10:57:27;;;;;;;6.15;4.13;;;20.10;76.20;;;;;;5050384;28;20519;-78
2022/10/20 10:59:52;;;;;;;7.97;4.13;;;19.70;75.20;;;;;;5050396;28;20033;-78
2022/10/20 11:02:36;;;;;;;8.93;3.78;;;19.50;76.80;;;;;;5049381;28;20025;-77
2022/10/20 11:05:50;;;;;;;6.05;3.92;;;19.20;77.40;;;;;;5050125;28;20045;-77
2022/10/20 11:08:27;;;;;;;7.43;3.88;;;19.20;77.30;;;;;;5050320;28;20054;-77
2022/10/20 11:11:08;;;;;;;17.35;7.50;;;19.20;76.90;;;;;;5050694;28;20472;-77
2022/10/20 11:13:39;;;;;;;17.67;9.68;;;19.10;77.10;;;;;;5049182;28;20063;-77
2022/10/20 11:16:13;;;;;;;10.32;5.20;;;19.10;77.60;;;;;;5049466;28;20033;-77
2022/10/20 11:18:48;;;;;;;6.82;4.07;;;19.00;78.70;;;;;;5052908;28;20127;-78
2022/10/20 11:21:42;;;;;;;9.35;4.47;;;18.80;78.20;;;;;;5053024;28;20443;-77
2022/10/20 11:24:16;;;;;;;10.57;4.90;;;18.90;78.90;;;;;;5054230;28;20483;-77
2022/10/20 11:26:49;;;;;;;12.70;4.65;;;18.80;78.80;;;;;;5053721;28;20039;-79
2022/10/20 11:29:41;;;;;;;8.00;4.18;;;18.70;79.00;;;;;;5054255;28;20009;-78
2022/10/20 11:32:25;;;;;;;11.50;5.68;;;18.70;79.60;;;;;;5053217;28;20055;-79
2022/10/20 11:35:12;;;;;;;16.25;5.40;;;18.50;80.00;;;;;;5053792;28;20116;-78
2022/10/20 11:37:50;;;;;;;8.15;4.57;;;18.30;81.70;;;;;;5053873;28;20037;-79
2022/10/20 11:40:23;;;;;;;7.75;4.65;;;18.00;82.10;;;;;;5053893;28;20118;-78
2022/10/20 11:43:13;;;;;;;17.48;4.97;;;18.20;81.40;;;;;;5053381;28;20116;-77
2022/10/20 11:45:57;;;;;;;10.77;4.20;;;18.40;81.30;;;;;;5053514;28;20033;-77
2022/10/20 11:48:37;;;;;;;10.50;5.28;;;18.40;81.40;;;;;;5053732;28;20040;-77
2022/10/20 11:51:21;;;;;;;10.35;4.50;;;18.20;81.70;;;;;;5053338;28;20116;-77
2022/10/20 11:54:21;;;;;;;10.20;4.90;;;18.30;82.70;;;;;;5052277;28;20420;-77
2022/10/20 11:57:16;;;;;;;9.30;4.97;;;18.10;82.70;;;;;;5053629;28;20046;-77
2022/10/20 12:00:29;;;;;;;7.50;4.00;;;17.90;82.80;;;;;;5052914;28;20021;-77
2022/10/20 12:03:17;;;;;;;7.95;4.85;;;18.00;83.10;;;;;;5032646;28;20048;-77
2022/10/20 12:06:04;;;;;;;9.63;5.20;;;17.80;83.60;;;;;;5052588;28;20100;-77
2022/10/20 12:08:57;;;;;;;8.55;4.88;;;17.90;83.90;;;;;;5053039;28;20308;-77
2022/10/20 12:11:45;;;;;;;11.63;5.25;;;18.00;84.00;;;;;;5052761;28;20078;-77
2022/10/20 12:14:14;;;;;;;13.13;5.47;;;17.80;84.00;;;;;;5053006;28;20073;-76
2022/10/20 12:16:58;;;;;;;8.60;5.28;;;17.50;85.00;;;;;;5053074;28;20026;-79
2022/10/20 12:19:30;;;;;;;12.07;5.20;;;17.30;85.80;;;;;;5052937;28;20033;-77
2022/10/20 12:22:05;;;;;;;9.70;5.50;;;17.20;86.30;;;;;;5052527;28;20292;-77
2022/10/20 12:24:38;;;;;;;10.45;5.15;;;17.20;86.80;;;;;;5052715;28;20120;-75
2022/10/20 12:27:09;;;;;;;13.13;5.10;;;17.20;87.30;;;;;;5052573;28;20036;-76
2022/10/20 12:29:35;;;;;;;10.85;5.45;;;17.40;87.20;;;;;;5052131;28;20024;-74
2022/10/20 12:32:38;;;;;;;10.10;6.03;;;17.30;87.50;;;;;;5053117;28;20021;-76
2022/10/20 12:35:10;;;;;;;11.40;5.30;;;17.30;87.50;;;;;;5052568;28;20437;-74
2022/10/20 12:37:37;;;;;;;10.50;5.82;;;17.30;88.00;;;;;;5052370;28;20026;-76
2022/10/20 12:40:06;;;;;;;11.38;5.28;;;17.40;87.90;;;;;;5050195;28;20428;-74
2022/10/20 12:42:38;;;;;;;8.18;4.53;;;17.30;88.20;;;;;;5052130;28;20029;-76
2022/10/20 12:45:22;;;;;;;7.53;4.60;;;17.10;89.20;;;;;;5051028;28;20408;-77
2022/10/20 12:47:58;;;;;;;7.93;5.10;;;17.10;89.80;;;;;;5052021;28;20039;-77
2022/10/20 12:50:29;;;;;;;9.10;5.45;;;17.20;89.80;;;;;;5051366;28;20398;-75
2022/10/20 12:53:07;;;;;;;12.98;5.47;;;17.20;90.20;;;;;;5052417;28;20033;-77
2022/10/20 12:55:37;;;;;;;9.50;4.93;;;17.20;90.10;;;;;;5051779;28;20522;-77
2022/10/20 12:58:16;;;;;;;9.60;4.72;;;17.20;90.30;;;;;;5050283;28;20039;-76
2022/10/20 13:00:45;;;;;;;9.10;4.93;;;17.20;90.20;;;;;;5051638;28;20479;-76
2022/10/20 13:03:45;;;;;;;10.02;5.47;;;17.10;90.30;;;;;;5051676;28;20467;-75
2022/10/20 13:06:26;;;;;;;7.93;4.80;;;16.80;90.60;;;;;;5050361;28;20049;-75
2022/10/20 13:09:08;;;;;;;9.77;4.93;;;16.80;90.70;;;;;;5050309;28;20037;-76
2022/10/20 13:11:37;;;;;;;9.48;5.45;;;16.70;90.80;;;;;;5051781;28;20013;-74